sensor_id;sensor_type;location;lat;lon;timestamp;P1;durP1;ratioP1;P2;durP2;ratioP2
45049;SDS011;61798;48.048;-1.928;2023-03-08T00:00:28;23.02;;;7.90;;
45049;SDS011;61798;48.048;-1.928;2023-03-08T00:02:35;25.15;;;7.75;;
45049;SDS011;61798;48.048;-1.928;2023-03-08T00:04:41;16.73;;;7.10;;
45049;SDS011;61798;48.048;-1.928;2023-03-08T00:06:48;13.90;;;5.85;;
45049;SDS011;61798;48.048;-1.928;2023-03-08T00:08:58;12.23;;;5.68;;
45049;SDS011;61798;48.048;-1.928;2023-03-08T00:11:07;8.73;;;3.20;;
45049;SDS011;61798;48.048;-1.928;2023-03-08T00:13:14;9.68;;;4.03;;
45049;SDS011;61798;48.048;-1.928;2023-03-08T00:15:20;9.18;;;3.75;;
45049;SDS011;61798;48.048;-1.928;2023-03-08T00:17:26;7.10;;;4.03;;
45049;SDS011;61798;48.048;-1.928;2023-03-08T00:19:32;6.38;;;3.67;;
45049;SDS011;61798;48.048;-1.928;2023-03-08T00:21:38;6.68;;;3.92;;
45049;SDS011;61798;48.048;-1.928;2023-03-08T00:23:44;7.68;;;3.50;;
45049;SDS011;61798;48.048;-1.928;2023-03-08T00:25:51;7.57;;;3.75;;
45049;SDS011;61798;48.048;-1.928;2023-03-08T00:27:57;8.48;;;3.60;;
45049;SDS011;61798;48.048;-1.928;2023-03-08T00:30:03;8.35;;;3.95;;
45049;SDS011;61798;48.048;-1.928;2023-03-08T00:32:10;6.20;;;2.42;;
45049;SDS011;61798;48.048;-1.928;2023-03-08T00:34:16;8.98;;;3.63;;
45049;SDS011;61798;48.048;-1.928;2023-03-08T00:36:23;3.90;;;2.63;;
45049;SDS011;61798;48.048;-1.928;2023-03-08T00:38:30;3.08;;;1.70;;
45049;SDS011;61798;48.048;-1.928;2023-03-08T00:40:37;3.88;;;2.00;;
45049;SDS011;61798;48.048;-1.928;2023-03-08T00:42:43;2.95;;;1.88;;
45049;SDS011;61798;48.048;-1.928;2023-03-08T00:44:49;4.68;;;2.03;;
45049;SDS011;61798;48.048;-1.928;2023-03-08T00:46:56;4.15;;;1.80;;
45049;SDS011;61798;48.048;-1.928;2023-03-08T00:49:02;2.88;;;1.60;;
45049;SDS011;61798;48.048;-1.928;2023-03-08T00:51:11;1.95;;;1.17;;
45049;SDS011;61798;48.048;-1.928;2023-03-08T00:53:21;3.75;;;1.30;;
45049;SDS011;61798;48.048;-1.928;2023-03-08T00:55:27;3.38;;;1.20;;
45049;SDS011;61798;48.048;-1.928;2023-03-08T00:57:33;3.10;;;1.50;;
45049;SDS011;61798;48.048;-1.928;2023-03-08T00:59:39;3.88;;;1.35;;
45049;SDS011;61798;48.048;-1.928;2023-03-08T01:01:45;1.95;;;0.85;;
45049;SDS011;61798;48.048;-1.928;2023-03-08T01:03:51;3.22;;;1.15;;
45049;SDS011;61798;48.048;-1.928;2023-03-08T01:05:57;1.88;;;1.20;;
45049;SDS011;61798;48.048;-1.928;2023-03-08T01:08:03;3.13;;;1.40;;
45049;SDS011;61798;48.048;-1.928;2023-03-08T01:10:10;2.05;;;1.13;;
45049;SDS011;61798;48.048;-1.928;2023-03-08T01:12:16;1.70;;;1.00;;
45049;SDS011;61798;48.048;-1.928;2023-03-08T01:14:26;3.63;;;1.88;;
45049;SDS011;61798;48.048;-1.928;2023-03-08T01:16:33;1.30;;;0.73;;
45049;SDS011;61798;48.048;-1.928;2023-03-08T01:18:39;2.00;;;0.77;;
45049;SDS011;61798;48.048;-1.928;2023-03-08T01:20:53;1.73;;;0.80;;
45049;SDS011;61798;48.048;-1.928;2023-03-08T01:23:03;0.60;;;0.60;;
45049;SDS011;61798;48.048;-1.928;2023-03-08T01:25:10;0.60;;;0.60;;
45049;SDS011;61798;48.048;-1.928;2023-03-08T01:27:18;2.22;;;0.73;;
45049;SDS011;61798;48.048;-1.928;2023-03-08T01:29:24;0.73;;;0.57;;
45049;SDS011;61798;48.048;-1.928;2023-03-08T01:31:30;0.77;;;0.50;;
45049;SDS011;61798;48.048;-1.928;2023-03-08T01:33:38;0.75;;;0.45;;
45049;SDS011;61798;48.048;-1.928;2023-03-08T01:35:46;0.50;;;0.50;;
45049;SDS011;61798;48.048;-1.928;2023-03-08T01:37:54;0.63;;;0.60;;
45049;SDS011;61798;48.048;-1.928;2023-03-08T01:40:13;0.50;;;0.50;;
45049;SDS011;61798;48.048;-1.928;2023-03-08T01:42:26;0.30;;;0.30;;
45049;SDS011;61798;48.048;-1.928;2023-03-08T01:47:17;2.42;;;0.70;;
45049;SDS011;61798;48.048;-1.928;2023-03-08T01:49:32;0.40;;;0.40;;
45049;SDS011;61798;48.048;-1.928;2023-03-08T01:54:15;0.30;;;0.30;;
45049;SDS011;61798;48.048;-1.928;2023-03-08T01:56:36;0.40;;;0.40;;
45049;SDS011;61798;48.048;-1.928;2023-03-08T01:58:47;0.60;;;0.50;;
45049;SDS011;61798;48.048;-1.928;2023-03-08T02:00:59;0.63;;;0.50;;
45049;SDS011;61798;48.048;-1.928;2023-03-08T02:03:09;1.38;;;0.40;;
45049;SDS011;61798;48.048;-1.928;2023-03-08T02:05:21;0.80;;;0.32;;
45049;SDS011;61798;48.048;-1.928;2023-03-08T02:07:38;0.55;;;0.40;;
45049;SDS011;61798;48.048;-1.928;2023-03-08T02:09:52;0.98;;;0.80;;
45049;SDS011;61798;48.048;-1.928;2023-03-08T02:12:06;3.65;;;0.60;;
45049;SDS011;61798;48.048;-1.928;2023-03-08T02:14:23;0.65;;;0.30;;
45049;SDS011;61798;48.048;-1.928;2023-03-08T02:16:39;1.95;;;0.43;;
45049;SDS011;61798;48.048;-1.928;2023-03-08T02:21:15;1.73;;;0.52;;
45049;SDS011;61798;48.048;-1.928;2023-03-08T02:23:25;1.33;;;0.55;;
45049;SDS011;61798;48.048;-1.928;2023-03-08T02:25:39;2.45;;;0.60;;
45049;SDS011;61798;48.048;-1.928;2023-03-08T02:28:11;3.17;;;0.73;;
45049;SDS011;61798;48.048;-1.928;2023-03-08T02:30:23;3.55;;;0.77;;
45049;SDS011;61798;48.048;-1.928;2023-03-08T02:32:41;2.13;;;0.70;;
45049;SDS011;61798;48.048;-1.928;2023-03-08T02:35:00;2.03;;;0.80;;
45049;SDS011;61798;48.048;-1.928;2023-03-08T02:37:11;2.80;;;0.90;;
45049;SDS011;61798;48.048;-1.928;2023-03-08T02:39:23;1.77;;;0.80;;
45049;SDS011;61798;48.048;-1.928;2023-03-08T02:41:44;6.17;;;1.20;;
45049;SDS011;61798;48.048;-1.928;2023-03-08T02:44:05;7.78;;;1.17;;
45049;SDS011;61798;48.048;-1.928;2023-03-08T02:46:17;5.65;;;1.08;;
45049;SDS011;61798;48.048;-1.928;2023-03-08T02:48:25;6.25;;;0.90;;
45049;SDS011;61798;48.048;-1.928;2023-03-08T02:50:40;3.72;;;1.00;;
45049;SDS011;61798;48.048;-1.928;2023-03-08T02:52:49;4.40;;;1.10;;
45049;SDS011;61798;48.048;-1.928;2023-03-08T02:55:08;4.70;;;1.30;;
45049;SDS011;61798;48.048;-1.928;2023-03-08T02:57:22;8.30;;;1.27;;
45049;SDS011;61798;48.048;-1.928;2023-03-08T02:59:34;6.43;;;1.17;;
45049;SDS011;61798;48.048;-1.928;2023-03-08T03:01:43;6.85;;;1.52;;
45049;SDS011;61798;48.048;-1.928;2023-03-08T03:03:56;7.38;;;1.30;;
45049;SDS011;61798;48.048;-1.928;2023-03-08T03:06:14;8.32;;;1.55;;
45049;SDS011;61798;48.048;-1.928;2023-03-08T03:08:30;7.93;;;1.40;;
45049;SDS011;61798;48.048;-1.928;2023-03-08T03:10:39;20.55;;;1.92;;
45049;SDS011;61798;48.048;-1.928;2023-03-08T03:12:52;12.55;;;1.90;;
45049;SDS011;61798;48.048;-1.928;2023-03-08T03:15:07;11.13;;;1.92;;
45049;SDS011;61798;48.048;-1.928;2023-03-08T03:17:21;16.25;;;2.70;;
45049;SDS011;61798;48.048;-1.928;2023-03-08T03:19:33;14.20;;;1.88;;
45049;SDS011;61798;48.048;-1.928;2023-03-08T03:21:42;9.38;;;1.95;;
45049;SDS011;61798;48.048;-1.928;2023-03-08T03:23:53;11.90;;;2.17;;
45049;SDS011;61798;48.048;-1.928;2023-03-08T03:26:08;15.40;;;2.40;;
45049;SDS011;61798;48.048;-1.928;2023-03-08T03:28:24;17.52;;;2.40;;
45049;SDS011;61798;48.048;-1.928;2023-03-08T03:30:54;14.90;;;2.47;;
45049;SDS011;61798;48.048;-1.928;2023-03-08T03:33:06;21.63;;;3.38;;
45049;SDS011;61798;48.048;-1.928;2023-03-08T03:35:20;19.30;;;3.10;;
45049;SDS011;61798;48.048;-1.928;2023-03-08T03:37:27;18.00;;;2.83;;
45049;SDS011;61798;48.048;-1.928;2023-03-08T03:39:37;18.92;;;3.28;;
45049;SDS011;61798;48.048;-1.928;2023-03-08T03:41:45;13.50;;;2.40;;
45049;SDS011;61798;48.048;-1.928;2023-03-08T03:43:51;21.45;;;3.15;;
45049;SDS011;61798;48.048;-1.928;2023-03-08T03:45:57;22.48;;;3.25;;
45049;SDS011;61798;48.048;-1.928;2023-03-08T03:48:06;18.75;;;2.80;;
45049;SDS011;61798;48.048;-1.928;2023-03-08T03:50:12;15.20;;;2.97;;
45049;SDS011;61798;48.048;-1.928;2023-03-08T03:52:18;21.83;;;3.70;;
45049;SDS011;61798;48.048;-1.928;2023-03-08T03:54:24;20.90;;;3.67;;
45049;SDS011;61798;48.048;-1.928;2023-03-08T03:56:30;23.20;;;3.63;;
45049;SDS011;61798;48.048;-1.928;2023-03-08T03:58:36;21.45;;;3.70;;
45049;SDS011;61798;48.048;-1.928;2023-03-08T04:00:44;20.05;;;4.03;;
45049;SDS011;61798;48.048;-1.928;2023-03-08T04:02:50;32.17;;;4.28;;
45049;SDS011;61798;48.048;-1.928;2023-03-08T04:04:56;23.35;;;4.22;;
45049;SDS011;61798;48.048;-1.928;2023-03-08T04:07:02;24.77;;;3.42;;
45049;SDS011;61798;48.048;-1.928;2023-03-08T04:09:11;21.95;;;3.83;;
45049;SDS011;61798;48.048;-1.928;2023-03-08T04:11:20;20.83;;;3.92;;
45049;SDS011;61798;48.048;-1.928;2023-03-08T04:13:28;34.83;;;5.68;;
45049;SDS011;61798;48.048;-1.928;2023-03-08T04:15:33;24.70;;;4.13;;
45049;SDS011;61798;48.048;-1.928;2023-03-08T04:17:39;28.30;;;4.35;;
45049;SDS011;61798;48.048;-1.928;2023-03-08T04:19:47;26.20;;;4.05;;
45049;SDS011;61798;48.048;-1.928;2023-03-08T04:21:55;30.63;;;3.85;;
45049;SDS011;61798;48.048;-1.928;2023-03-08T04:24:01;24.05;;;4.57;;
45049;SDS011;61798;48.048;-1.928;2023-03-08T04:26:07;33.22;;;4.20;;
45049;SDS011;61798;48.048;-1.928;2023-03-08T04:28:13;27.88;;;4.18;;
45049;SDS011;61798;48.048;-1.928;2023-03-08T04:30:21;18.27;;;3.97;;
45049;SDS011;61798;48.048;-1.928;2023-03-08T04:32:27;25.67;;;4.43;;
45049;SDS011;61798;48.048;-1.928;2023-03-08T04:34:36;27.90;;;3.97;;
45049;SDS011;61798;48.048;-1.928;2023-03-08T04:36:42;27.90;;;4.13;;
45049;SDS011;61798;48.048;-1.928;2023-03-08T04:38:49;26.05;;;3.92;;
45049;SDS011;61798;48.048;-1.928;2023-03-08T04:40:55;32.42;;;4.38;;
45049;SDS011;61798;48.048;-1.928;2023-03-08T04:43:09;27.58;;;3.80;;
45049;SDS011;61798;48.048;-1.928;2023-03-08T04:45:16;28.25;;;4.68;;
45049;SDS011;61798;48.048;-1.928;2023-03-08T04:47:22;22.60;;;4.03;;
45049;SDS011;61798;48.048;-1.928;2023-03-08T04:49:28;25.52;;;4.60;;
45049;SDS011;61798;48.048;-1.928;2023-03-08T04:51:34;26.10;;;3.58;;
45049;SDS011;61798;48.048;-1.928;2023-03-08T04:53:40;24.63;;;4.05;;
45049;SDS011;61798;48.048;-1.928;2023-03-08T04:55:50;20.65;;;3.75;;
45049;SDS011;61798;48.048;-1.928;2023-03-08T04:57:57;25.30;;;3.53;;
45049;SDS011;61798;48.048;-1.928;2023-03-08T05:00:04;17.90;;;2.97;;
45049;SDS011;61798;48.048;-1.928;2023-03-08T05:02:10;23.55;;;3.50;;
45049;SDS011;61798;48.048;-1.928;2023-03-08T05:04:16;21.00;;;3.42;;
45049;SDS011;61798;48.048;-1.928;2023-03-08T05:06:24;25.48;;;4.03;;
45049;SDS011;61798;48.048;-1.928;2023-03-08T05:08:31;19.00;;;3.08;;
45049;SDS011;61798;48.048;-1.928;2023-03-08T05:10:45;23.92;;;4.22;;
45049;SDS011;61798;48.048;-1.928;2023-03-08T05:13:03;22.33;;;3.92;;
45049;SDS011;61798;48.048;-1.928;2023-03-08T05:15:12;26.73;;;3.80;;
45049;SDS011;61798;48.048;-1.928;2023-03-08T05:17:19;23.23;;;3.83;;
45049;SDS011;61798;48.048;-1.928;2023-03-08T05:19:27;23.25;;;4.18;;
45049;SDS011;61798;48.048;-1.928;2023-03-08T05:21:39;24.05;;;3.50;;
45049;SDS011;61798;48.048;-1.928;2023-03-08T05:23:49;28.85;;;4.03;;
45049;SDS011;61798;48.048;-1.928;2023-03-08T05:25:58;24.50;;;3.55;;
45049;SDS011;61798;48.048;-1.928;2023-03-08T05:28:07;30.20;;;3.85;;
45049;SDS011;61798;48.048;-1.928;2023-03-08T05:30:24;25.52;;;4.13;;
45049;SDS011;61798;48.048;-1.928;2023-03-08T05:32:34;23.23;;;4.97;;
45049;SDS011;61798;48.048;-1.928;2023-03-08T05:34:43;37.15;;;4.75;;
45049;SDS011;61798;48.048;-1.928;2023-03-08T05:36:55;23.50;;;4.68;;
45049;SDS011;61798;48.048;-1.928;2023-03-08T05:39:05;25.23;;;5.35;;
45049;SDS011;61798;48.048;-1.928;2023-03-08T05:41:13;26.77;;;4.03;;
45049;SDS011;61798;48.048;-1.928;2023-03-08T05:43:22;26.70;;;4.63;;
45049;SDS011;61798;48.048;-1.928;2023-03-08T05:45:31;25.08;;;3.60;;
45049;SDS011;61798;48.048;-1.928;2023-03-08T05:47:45;25.25;;;4.20;;
45049;SDS011;61798;48.048;-1.928;2023-03-08T05:49:57;27.13;;;4.15;;
45049;SDS011;61798;48.048;-1.928;2023-03-08T05:52:11;28.40;;;4.00;;
45049;SDS011;61798;48.048;-1.928;2023-03-08T05:54:19;18.33;;;3.40;;
45049;SDS011;61798;48.048;-1.928;2023-03-08T05:56:28;24.95;;;4.40;;
45049;SDS011;61798;48.048;-1.928;2023-03-08T05:58:37;25.75;;;3.90;;
45049;SDS011;61798;48.048;-1.928;2023-03-08T06:00:50;23.67;;;3.47;;
45049;SDS011;61798;48.048;-1.928;2023-03-08T06:02:59;19.93;;;3.30;;
45049;SDS011;61798;48.048;-1.928;2023-03-08T06:05:11;20.60;;;3.75;;
45049;SDS011;61798;48.048;-1.928;2023-03-08T06:07:27;17.70;;;3.20;;
45049;SDS011;61798;48.048;-1.928;2023-03-08T06:09:34;16.85;;;3.22;;
45049;SDS011;61798;48.048;-1.928;2023-03-08T06:11:41;23.17;;;2.95;;
45049;SDS011;61798;48.048;-1.928;2023-03-08T06:13:48;19.90;;;2.90;;
45049;SDS011;61798;48.048;-1.928;2023-03-08T06:15:56;15.68;;;2.83;;
45049;SDS011;61798;48.048;-1.928;2023-03-08T06:18:04;16.23;;;3.38;;
45049;SDS011;61798;48.048;-1.928;2023-03-08T06:20:11;14.13;;;2.50;;
45049;SDS011;61798;48.048;-1.928;2023-03-08T06:22:18;16.70;;;2.60;;
45049;SDS011;61798;48.048;-1.928;2023-03-08T06:24:25;18.38;;;2.65;;
45049;SDS011;61798;48.048;-1.928;2023-03-08T06:26:35;15.95;;;2.35;;
45049;SDS011;61798;48.048;-1.928;2023-03-08T06:28:45;17.15;;;3.08;;
45049;SDS011;61798;48.048;-1.928;2023-03-08T06:30:52;18.35;;;2.58;;
45049;SDS011;61798;48.048;-1.928;2023-03-08T06:32:59;17.02;;;2.75;;
45049;SDS011;61798;48.048;-1.928;2023-03-08T06:35:06;13.48;;;2.30;;
45049;SDS011;61798;48.048;-1.928;2023-03-08T06:37:14;12.48;;;2.38;;
45049;SDS011;61798;48.048;-1.928;2023-03-08T06:39:22;11.10;;;2.47;;
45049;SDS011;61798;48.048;-1.928;2023-03-08T06:41:28;11.40;;;2.17;;
45049;SDS011;61798;48.048;-1.928;2023-03-08T06:43:37;14.93;;;2.45;;
45049;SDS011;61798;48.048;-1.928;2023-03-08T06:45:45;14.95;;;2.17;;
45049;SDS011;61798;48.048;-1.928;2023-03-08T06:47:55;13.50;;;2.35;;
45049;SDS011;61798;48.048;-1.928;2023-03-08T06:50:03;13.45;;;2.10;;
45049;SDS011;61798;48.048;-1.928;2023-03-08T06:52:11;14.00;;;2.20;;
45049;SDS011;61798;48.048;-1.928;2023-03-08T06:54:17;15.35;;;1.77;;
45049;SDS011;61798;48.048;-1.928;2023-03-08T06:56:24;12.25;;;2.28;;
45049;SDS011;61798;48.048;-1.928;2023-03-08T06:58:35;10.85;;;1.90;;
45049;SDS011;61798;48.048;-1.928;2023-03-08T07:00:43;16.40;;;2.58;;
45049;SDS011;61798;48.048;-1.928;2023-03-08T07:02:50;16.65;;;2.50;;
45049;SDS011;61798;48.048;-1.928;2023-03-08T07:04:57;14.77;;;3.15;;
45049;SDS011;61798;48.048;-1.928;2023-03-08T07:07:04;15.93;;;2.40;;
45049;SDS011;61798;48.048;-1.928;2023-03-08T07:09:15;11.38;;;2.60;;
45049;SDS011;61798;48.048;-1.928;2023-03-08T07:11:22;9.55;;;1.90;;
45049;SDS011;61798;48.048;-1.928;2023-03-08T07:13:29;9.07;;;1.63;;
45049;SDS011;61798;48.048;-1.928;2023-03-08T07:15:38;9.50;;;1.88;;
45049;SDS011;61798;48.048;-1.928;2023-03-08T07:17:45;14.75;;;2.30;;
45049;SDS011;61798;48.048;-1.928;2023-03-08T07:19:55;15.80;;;2.60;;
45049;SDS011;61798;48.048;-1.928;2023-03-08T07:22:03;10.98;;;2.42;;
45049;SDS011;61798;48.048;-1.928;2023-03-08T07:24:12;14.50;;;2.35;;
45049;SDS011;61798;48.048;-1.928;2023-03-08T07:26:20;11.77;;;2.25;;
45049;SDS011;61798;48.048;-1.928;2023-03-08T07:28:28;11.82;;;2.28;;
45049;SDS011;61798;48.048;-1.928;2023-03-08T07:30:48;10.10;;;2.40;;
45049;SDS011;61798;48.048;-1.928;2023-03-08T07:33:09;14.77;;;2.33;;
45049;SDS011;61798;48.048;-1.928;2023-03-08T07:35:20;13.35;;;2.78;;
45049;SDS011;61798;48.048;-1.928;2023-03-08T07:37:28;10.75;;;2.50;;
45049;SDS011;61798;48.048;-1.928;2023-03-08T07:39:35;14.00;;;2.55;;
45049;SDS011;61798;48.048;-1.928;2023-03-08T07:41:43;15.93;;;2.35;;
45049;SDS011;61798;48.048;-1.928;2023-03-08T07:44:11;16.20;;;2.60;;
45049;SDS011;61798;48.048;-1.928;2023-03-08T07:46:18;15.43;;;2.97;;
45049;SDS011;61798;48.048;-1.928;2023-03-08T07:48:24;18.38;;;3.05;;
45049;SDS011;61798;48.048;-1.928;2023-03-08T07:50:31;17.00;;;3.10;;
45049;SDS011;61798;48.048;-1.928;2023-03-08T07:52:41;15.32;;;2.75;;
45049;SDS011;61798;48.048;-1.928;2023-03-08T07:54:51;18.17;;;2.80;;
45049;SDS011;61798;48.048;-1.928;2023-03-08T07:56:58;29.35;;;3.83;;
45049;SDS011;61798;48.048;-1.928;2023-03-08T07:59:07;17.63;;;3.17;;
45049;SDS011;61798;48.048;-1.928;2023-03-08T08:01:16;19.08;;;4.07;;
45049;SDS011;61798;48.048;-1.928;2023-03-08T08:03:23;17.85;;;3.88;;
45049;SDS011;61798;48.048;-1.928;2023-03-08T08:05:34;22.27;;;3.63;;
45049;SDS011;61798;48.048;-1.928;2023-03-08T08:07:45;28.42;;;9.95;;
45049;SDS011;61798;48.048;-1.928;2023-03-08T08:09:52;27.70;;;7.32;;
45049;SDS011;61798;48.048;-1.928;2023-03-08T08:12:02;29.35;;;5.15;;
45049;SDS011;61798;48.048;-1.928;2023-03-08T08:14:11;22.77;;;4.90;;
45049;SDS011;61798;48.048;-1.928;2023-03-08T08:16:18;22.52;;;4.07;;
45049;SDS011;61798;48.048;-1.928;2023-03-08T08:18:26;22.80;;;4.38;;
45049;SDS011;61798;48.048;-1.928;2023-03-08T08:20:33;20.13;;;3.83;;
45049;SDS011;61798;48.048;-1.928;2023-03-08T08:22:41;22.40;;;4.18;;
45049;SDS011;61798;48.048;-1.928;2023-03-08T08:24:48;20.92;;;3.97;;
45049;SDS011;61798;48.048;-1.928;2023-03-08T08:26:55;26.10;;;4.65;;
45049;SDS011;61798;48.048;-1.928;2023-03-08T08:29:03;29.50;;;5.05;;
45049;SDS011;61798;48.048;-1.928;2023-03-08T08:31:19;19.92;;;3.72;;
45049;SDS011;61798;48.048;-1.928;2023-03-08T08:33:30;23.55;;;4.05;;
45049;SDS011;61798;48.048;-1.928;2023-03-08T08:35:40;23.88;;;4.95;;
45049;SDS011;61798;48.048;-1.928;2023-03-08T08:37:47;23.40;;;5.25;;
45049;SDS011;61798;48.048;-1.928;2023-03-08T08:39:55;26.45;;;5.00;;
45049;SDS011;61798;48.048;-1.928;2023-03-08T08:42:04;31.70;;;4.65;;
45049;SDS011;61798;48.048;-1.928;2023-03-08T08:44:11;29.48;;;5.55;;
45049;SDS011;61798;48.048;-1.928;2023-03-08T08:46:19;33.67;;;4.30;;
45049;SDS011;61798;48.048;-1.928;2023-03-08T08:48:28;34.55;;;4.75;;
45049;SDS011;61798;48.048;-1.928;2023-03-08T08:50:40;26.20;;;4.18;;
45049;SDS011;61798;48.048;-1.928;2023-03-08T08:52:47;21.05;;;4.50;;
45049;SDS011;61798;48.048;-1.928;2023-03-08T08:54:55;25.98;;;4.60;;
45049;SDS011;61798;48.048;-1.928;2023-03-08T08:57:08;28.50;;;4.22;;
45049;SDS011;61798;48.048;-1.928;2023-03-08T08:59:16;28.38;;;6.63;;
45049;SDS011;61798;48.048;-1.928;2023-03-08T09:01:27;31.88;;;5.50;;
45049;SDS011;61798;48.048;-1.928;2023-03-08T09:03:44;23.08;;;4.07;;
45049;SDS011;61798;48.048;-1.928;2023-03-08T09:05:56;23.50;;;5.20;;
45049;SDS011;61798;48.048;-1.928;2023-03-08T09:08:05;37.35;;;5.22;;
45049;SDS011;61798;48.048;-1.928;2023-03-08T09:10:20;24.13;;;4.45;;
45049;SDS011;61798;48.048;-1.928;2023-03-08T09:12:29;28.42;;;5.47;;
45049;SDS011;61798;48.048;-1.928;2023-03-08T09:14:39;24.75;;;4.60;;
45049;SDS011;61798;48.048;-1.928;2023-03-08T09:16:46;24.23;;;4.28;;
45049;SDS011;61798;48.048;-1.928;2023-03-08T09:18:57;28.17;;;5.20;;
45049;SDS011;61798;48.048;-1.928;2023-03-08T09:21:08;21.55;;;4.07;;
45049;SDS011;61798;48.048;-1.928;2023-03-08T09:23:16;31.27;;;4.95;;
45049;SDS011;61798;48.048;-1.928;2023-03-08T09:25:28;21.77;;;4.40;;
45049;SDS011;61798;48.048;-1.928;2023-03-08T09:27:37;26.45;;;4.57;;
45049;SDS011;61798;48.048;-1.928;2023-03-08T09:29:45;24.50;;;4.93;;
45049;SDS011;61798;48.048;-1.928;2023-03-08T09:31:52;22.52;;;4.18;;
45049;SDS011;61798;48.048;-1.928;2023-03-08T09:33:58;21.92;;;4.93;;
45049;SDS011;61798;48.048;-1.928;2023-03-08T09:36:06;21.52;;;3.88;;
45049;SDS011;61798;48.048;-1.928;2023-03-08T09:38:14;27.83;;;5.35;;
45049;SDS011;61798;48.048;-1.928;2023-03-08T09:40:25;23.23;;;3.83;;
45049;SDS011;61798;48.048;-1.928;2023-03-08T09:43:00;20.30;;;4.43;;
45049;SDS011;61798;48.048;-1.928;2023-03-08T09:45:17;24.75;;;5.22;;
45049;SDS011;61798;48.048;-1.928;2023-03-08T09:47:47;24.67;;;5.15;;
45049;SDS011;61798;48.048;-1.928;2023-03-08T09:50:11;16.88;;;3.15;;
45049;SDS011;61798;48.048;-1.928;2023-03-08T09:52:50;16.20;;;3.13;;
45049;SDS011;61798;48.048;-1.928;2023-03-08T09:55:24;11.50;;;2.75;;
45049;SDS011;61798;48.048;-1.928;2023-03-08T09:57:51;15.73;;;3.42;;
45049;SDS011;61798;48.048;-1.928;2023-03-08T10:00:05;15.38;;;3.67;;
45049;SDS011;61798;48.048;-1.928;2023-03-08T10:02:33;13.00;;;2.85;;
45049;SDS011;61798;48.048;-1.928;2023-03-08T10:10:36;8.93;;;2.13;;
45049;SDS011;61798;48.048;-1.928;2023-03-08T10:16:25;7.90;;;1.98;;
45049;SDS011;61798;48.048;-1.928;2023-03-08T10:18:39;7.00;;;2.63;;
45049;SDS011;61798;48.048;-1.928;2023-03-08T10:21:20;9.85;;;2.45;;
45049;SDS011;61798;48.048;-1.928;2023-03-08T10:23:29;8.98;;;2.35;;
45049;SDS011;61798;48.048;-1.928;2023-03-08T10:25:39;13.65;;;4.00;;
45049;SDS011;61798;48.048;-1.928;2023-03-08T10:27:47;15.27;;;3.42;;
45049;SDS011;61798;48.048;-1.928;2023-03-08T10:29:58;12.70;;;2.63;;
45049;SDS011;61798;48.048;-1.928;2023-03-08T10:32:13;13.18;;;2.50;;
45049;SDS011;61798;48.048;-1.928;2023-03-08T10:34:34;9.80;;;2.30;;
45049;SDS011;61798;48.048;-1.928;2023-03-08T10:36:52;9.30;;;2.47;;
45049;SDS011;61798;48.048;-1.928;2023-03-08T10:39:09;9.95;;;1.90;;
45049;SDS011;61798;48.048;-1.928;2023-03-08T10:41:18;7.53;;;2.53;;
45049;SDS011;61798;48.048;-1.928;2023-03-08T10:43:29;10.52;;;2.80;;
45049;SDS011;61798;48.048;-1.928;2023-03-08T10:45:45;12.90;;;2.38;;
45049;SDS011;61798;48.048;-1.928;2023-03-08T10:48:19;17.83;;;2.85;;
45049;SDS011;61798;48.048;-1.928;2023-03-08T10:50:31;12.07;;;2.58;;
45049;SDS011;61798;48.048;-1.928;2023-03-08T10:52:41;12.48;;;2.75;;
45049;SDS011;61798;48.048;-1.928;2023-03-08T10:54:58;16.40;;;2.72;;
45049;SDS011;61798;48.048;-1.928;2023-03-08T10:57:16;16.35;;;3.10;;
45049;SDS011;61798;48.048;-1.928;2023-03-08T10:59:27;20.73;;;3.70;;
45049;SDS011;61798;48.048;-1.928;2023-03-08T11:01:46;19.48;;;3.80;;
45049;SDS011;61798;48.048;-1.928;2023-03-08T11:04:36;11.73;;;2.83;;
45049;SDS011;61798;48.048;-1.928;2023-03-08T11:06:25;18.42;;;3.67;;
45049;SDS011;61798;48.048;-1.928;2023-03-08T11:08:32;18.83;;;3.55;;
45049;SDS011;61798;48.048;-1.928;2023-03-08T11:10:39;19.35;;;3.58;;
45049;SDS011;61798;48.048;-1.928;2023-03-08T11:12:47;22.38;;;3.58;;
45049;SDS011;61798;48.048;-1.928;2023-03-08T11:14:54;27.67;;;3.80;;
45049;SDS011;61798;48.048;-1.928;2023-03-08T11:22:22;28.60;;;4.57;;
45049;SDS011;61798;48.048;-1.928;2023-03-08T11:30:13;28.33;;;4.43;;
45049;SDS011;61798;48.048;-1.928;2023-03-08T11:42:46;28.42;;;4.20;;
45049;SDS011;61798;48.048;-1.928;2023-03-08T11:44:56;19.55;;;3.88;;
45049;SDS011;61798;48.048;-1.928;2023-03-08T11:50:11;24.45;;;4.32;;
45049;SDS011;61798;48.048;-1.928;2023-03-08T11:52:30;17.10;;;3.90;;
45049;SDS011;61798;48.048;-1.928;2023-03-08T11:57:34;21.00;;;3.83;;
45049;SDS011;61798;48.048;-1.928;2023-03-08T11:59:48;26.15;;;3.90;;
45049;SDS011;61798;48.048;-1.928;2023-03-08T12:04:18;19.42;;;3.30;;
45049;SDS011;61798;48.048;-1.928;2023-03-08T12:06:33;20.92;;;3.78;;
45049;SDS011;61798;48.048;-1.928;2023-03-08T12:08:47;18.33;;;3.42;;
45049;SDS011;61798;48.048;-1.928;2023-03-08T12:13:40;15.77;;;3.15;;
45049;SDS011;61798;48.048;-1.928;2023-03-08T12:15:54;16.33;;;3.20;;
45049;SDS011;61798;48.048;-1.928;2023-03-08T12:18:13;23.20;;;3.60;;
45049;SDS011;61798;48.048;-1.928;2023-03-08T12:20:24;14.77;;;3.28;;
45049;SDS011;61798;48.048;-1.928;2023-03-08T12:27:08;21.20;;;4.28;;
45049;SDS011;61798;48.048;-1.928;2023-03-08T12:29:28;25.17;;;6.47;;
45049;SDS011;61798;48.048;-1.928;2023-03-08T12:31:45;23.00;;;4.20;;
45049;SDS011;61798;48.048;-1.928;2023-03-08T12:33:53;22.48;;;4.80;;
45049;SDS011;61798;48.048;-1.928;2023-03-08T12:36:01;24.52;;;4.22;;
45049;SDS011;61798;48.048;-1.928;2023-03-08T12:42:45;19.02;;;4.10;;
45049;SDS011;61798;48.048;-1.928;2023-03-08T12:44:52;22.58;;;4.40;;
45049;SDS011;61798;48.048;-1.928;2023-03-08T12:47:33;25.35;;;3.97;;
45049;SDS011;61798;48.048;-1.928;2023-03-08T12:49:43;25.98;;;4.35;;
45049;SDS011;61798;48.048;-1.928;2023-03-08T12:52:00;22.30;;;4.45;;
45049;SDS011;61798;48.048;-1.928;2023-03-08T12:54:17;23.88;;;4.47;;
45049;SDS011;61798;48.048;-1.928;2023-03-08T13:01:39;24.92;;;4.65;;
45049;SDS011;61798;48.048;-1.928;2023-03-08T13:03:55;24.20;;;4.50;;
45049;SDS011;61798;48.048;-1.928;2023-03-08T13:06:13;25.13;;;4.72;;
45049;SDS011;61798;48.048;-1.928;2023-03-08T13:08:52;22.38;;;4.32;;
45049;SDS011;61798;48.048;-1.928;2023-03-08T13:11:12;12.45;;;3.03;;
45049;SDS011;61798;48.048;-1.928;2023-03-08T13:15:46;19.38;;;4.30;;
45049;SDS011;61798;48.048;-1.928;2023-03-08T13:18:03;23.83;;;3.95;;
45049;SDS011;61798;48.048;-1.928;2023-03-08T13:20:24;24.20;;;3.60;;
45049;SDS011;61798;48.048;-1.928;2023-03-08T13:22:44;18.48;;;3.97;;
45049;SDS011;61798;48.048;-1.928;2023-03-08T13:32:37;16.90;;;3.60;;
45049;SDS011;61798;48.048;-1.928;2023-03-08T13:35:00;19.98;;;3.22;;
45049;SDS011;61798;48.048;-1.928;2023-03-08T13:37:21;11.97;;;3.60;;
45049;SDS011;61798;48.048;-1.928;2023-03-08T13:39:29;17.95;;;3.58;;
45049;SDS011;61798;48.048;-1.928;2023-03-08T13:41:41;15.82;;;3.17;;
45049;SDS011;61798;48.048;-1.928;2023-03-08T13:43:51;17.08;;;3.10;;
45049;SDS011;61798;48.048;-1.928;2023-03-08T13:46:09;13.23;;;3.58;;
45049;SDS011;61798;48.048;-1.928;2023-03-08T13:48:25;15.15;;;3.45;;
45049;SDS011;61798;48.048;-1.928;2023-03-08T13:50:37;19.38;;;3.60;;
45049;SDS011;61798;48.048;-1.928;2023-03-08T13:54:57;19.85;;;3.70;;
45049;SDS011;61798;48.048;-1.928;2023-03-08T13:57:16;22.58;;;4.00;;
45049;SDS011;61798;48.048;-1.928;2023-03-08T13:59:27;15.38;;;3.67;;
45049;SDS011;61798;48.048;-1.928;2023-03-08T14:01:35;18.50;;;4.30;;
45049;SDS011;61798;48.048;-1.928;2023-03-08T14:03:54;19.75;;;3.88;;
45049;SDS011;61798;48.048;-1.928;2023-03-08T14:06:03;16.73;;;4.07;;